sensor_id;sensor_type;location;lat;lon;timestamp;P1;durP1;ratioP1;P2;durP2;ratioP2
3211;SDS011;1618;47.056;15.472;2024-01-10T00:02:18;33.63;;;31.03;;
3211;SDS011;1618;47.056;15.472;2024-01-10T00:04:45;33.67;;;31.07;;
3211;SDS011;1618;47.056;15.472;2024-01-10T00:07:14;33.80;;;31.20;;
3211;SDS011;1618;47.056;15.472;2024-01-10T00:09:41;34.60;;;32.00;;
3211;SDS011;1618;47.056;15.472;2024-01-10T00:12:12;35.00;;;32.40;;
3211;SDS011;1618;47.056;15.472;2024-01-10T00:14:39;35.00;;;32.40;;
3211;SDS011;1618;47.056;15.472;2024-01-10T00:17:07;34.67;;;32.07;;
3211;SDS011;1618;47.056;15.472;2024-01-10T00:19:35;35.37;;;32.67;;
3211;SDS011;1618;47.056;15.472;2024-01-10T00:22:04;34.23;;;31.63;;
3211;SDS011;1618;47.056;15.472;2024-01-10T00:24:32;34.20;;;31.60;;
3211;SDS011;1618;47.056;15.472;2024-01-10T00:26:59;33.70;;;31.20;;
3211;SDS011;1618;47.056;15.472;2024-01-10T00:29:29;34.80;;;32.20;;
3211;SDS011;1618;47.056;15.472;2024-01-10T00:31:58;34.80;;;32.20;;
3211;SDS011;1618;47.056;15.472;2024-01-10T00:34:26;35.20;;;32.60;;
3211;SDS011;1618;47.056;15.472;2024-01-10T00:36:53;34.80;;;32.20;;
3211;SDS011;1618;47.056;15.472;2024-01-10T00:39:20;38.30;;;35.70;;
3211;SDS011;1618;47.056;15.472;2024-01-10T00:41:48;38.70;;;36.10;;
3211;SDS011;1618;47.056;15.472;2024-01-10T00:44:16;38.07;;;35.50;;
3211;SDS011;1618;47.056;15.472;2024-01-10T00:46:44;39.97;;;37.27;;
3211;SDS011;1618;47.056;15.472;2024-01-10T00:49:12;35.57;;;32.87;;
3211;SDS011;1618;47.056;15.472;2024-01-10T00:51:40;34.93;;;32.33;;
3211;SDS011;1618;47.056;15.472;2024-01-10T00:54:08;35.43;;;32.73;;
3211;SDS011;1618;47.056;15.472;2024-01-10T00:56:38;33.53;;;30.93;;
3211;SDS011;1618;47.056;15.472;2024-01-10T00:59:07;34.80;;;32.20;;
3211;SDS011;1618;47.056;15.472;2024-01-10T01:01:35;34.20;;;31.60;;
3211;SDS011;1618;47.056;15.472;2024-01-10T01:04:05;33.77;;;31.27;;
3211;SDS011;1618;47.056;15.472;2024-01-10T01:06:34;33.63;;;31.13;;
3211;SDS011;1618;47.056;15.472;2024-01-10T01:09:01;33.60;;;31.00;;
3211;SDS011;1618;47.056;15.472;2024-01-10T01:11:30;33.30;;;30.70;;
3211;SDS011;1618;47.056;15.472;2024-01-10T01:13:58;33.93;;;31.33;;
3211;SDS011;1618;47.056;15.472;2024-01-10T01:16:25;33.30;;;30.73;;
3211;SDS011;1618;47.056;15.472;2024-01-10T01:18:53;33.37;;;30.87;;
3211;SDS011;1618;47.056;15.472;2024-01-10T01:21:21;33.70;;;31.10;;
3211;SDS011;1618;47.056;15.472;2024-01-10T01:23:49;34.17;;;31.57;;
3211;SDS011;1618;47.056;15.472;2024-01-10T01:26:18;34.13;;;31.53;;
3211;SDS011;1618;47.056;15.472;2024-01-10T01:28:45;34.50;;;31.90;;
3211;SDS011;1618;47.056;15.472;2024-01-10T01:31:12;34.33;;;31.73;;
3211;SDS011;1618;47.056;15.472;2024-01-10T01:33:41;34.20;;;31.60;;
3211;SDS011;1618;47.056;15.472;2024-01-10T01:36:07;33.70;;;31.17;;
3211;SDS011;1618;47.056;15.472;2024-01-10T01:38:38;35.10;;;32.50;;
3211;SDS011;1618;47.056;15.472;2024-01-10T01:41:06;35.10;;;32.50;;
3211;SDS011;1618;47.056;15.472;2024-01-10T01:43:33;36.03;;;33.43;;
3211;SDS011;1618;47.056;15.472;2024-01-10T01:46:01;34.77;;;32.17;;
3211;SDS011;1618;47.056;15.472;2024-01-10T01:48:29;34.90;;;32.33;;
3211;SDS011;1618;47.056;15.472;2024-01-10T01:50:58;35.97;;;33.37;;
3211;SDS011;1618;47.056;15.472;2024-01-10T01:53:28;34.67;;;32.07;;
3211;SDS011;1618;47.056;15.472;2024-01-10T01:55:58;35.47;;;32.87;;
3211;SDS011;1618;47.056;15.472;2024-01-10T01:58:29;36.13;;;33.43;;
3211;SDS011;1618;47.056;15.472;2024-01-10T02:00:57;36.33;;;33.63;;
3211;SDS011;1618;47.056;15.472;2024-01-10T02:03:25;39.37;;;36.67;;
3211;SDS011;1618;47.056;15.472;2024-01-10T02:05:53;39.70;;;37.00;;
3211;SDS011;1618;47.056;15.472;2024-01-10T02:08:21;39.20;;;36.50;;
3211;SDS011;1618;47.056;15.472;2024-01-10T02:10:52;38.70;;;36.00;;
3211;SDS011;1618;47.056;15.472;2024-01-10T02:13:20;36.27;;;33.67;;
3211;SDS011;1618;47.056;15.472;2024-01-10T02:15:49;35.70;;;33.10;;
3211;SDS011;1618;47.056;15.472;2024-01-10T02:18:17;35.63;;;33.10;;
3211;SDS011;1618;47.056;15.472;2024-01-10T02:20:44;36.37;;;33.77;;
3211;SDS011;1618;47.056;15.472;2024-01-10T02:23:13;35.87;;;33.27;;
3211;SDS011;1618;47.056;15.472;2024-01-10T02:25:43;35.20;;;32.60;;
3211;SDS011;1618;47.056;15.472;2024-01-10T02:28:12;35.17;;;32.57;;
3211;SDS011;1618;47.056;15.472;2024-01-10T02:30:41;33.50;;;30.90;;
3211;SDS011;1618;47.056;15.472;2024-01-10T02:33:08;32.50;;;30.00;;
3211;SDS011;1618;47.056;15.472;2024-01-10T02:35:36;33.10;;;30.50;;
3211;SDS011;1618;47.056;15.472;2024-01-10T02:38:04;32.30;;;29.73;;
3211;SDS011;1618;47.056;15.472;2024-01-10T02:40:32;32.80;;;30.20;;
3211;SDS011;1618;47.056;15.472;2024-01-10T02:43:01;33.27;;;30.67;;
3211;SDS011;1618;47.056;15.472;2024-01-10T02:45:28;33.37;;;30.77;;
3211;SDS011;1618;47.056;15.472;2024-01-10T02:47:57;32.60;;;30.00;;
3211;SDS011;1618;47.056;15.472;2024-01-10T02:50:25;32.77;;;30.17;;
3211;SDS011;1618;47.056;15.472;2024-01-10T02:52:52;32.80;;;30.23;;
3211;SDS011;1618;47.056;15.472;2024-01-10T02:55:19;31.93;;;29.43;;
3211;SDS011;1618;47.056;15.472;2024-01-10T02:57:47;33.40;;;30.80;;
3211;SDS011;1618;47.056;15.472;2024-01-10T03:00:15;34.07;;;31.47;;
3211;SDS011;1618;47.056;15.472;2024-01-10T03:02:44;32.43;;;29.93;;
3211;SDS011;1618;47.056;15.472;2024-01-10T03:05:11;33.57;;;30.97;;
3211;SDS011;1618;47.056;15.472;2024-01-10T03:07:38;33.90;;;31.30;;
3211;SDS011;1618;47.056;15.472;2024-01-10T03:10:11;34.27;;;31.67;;
3211;SDS011;1618;47.056;15.472;2024-01-10T03:12:42;34.63;;;32.03;;
3211;SDS011;1618;47.056;15.472;2024-01-10T03:15:09;33.40;;;30.90;;
3211;SDS011;1618;47.056;15.472;2024-01-10T03:17:38;33.63;;;31.07;;
3211;SDS011;1618;47.056;15.472;2024-01-10T03:20:06;33.10;;;30.60;;
3211;SDS011;1618;47.056;15.472;2024-01-10T03:22:35;34.00;;;31.50;;
3211;SDS011;1618;47.056;15.472;2024-01-10T03:25:02;33.47;;;30.97;;
3211;SDS011;1618;47.056;15.472;2024-01-10T03:27:30;36.57;;;34.17;;
3211;SDS011;1618;47.056;15.472;2024-01-10T03:29:57;36.20;;;33.80;;
3211;SDS011;1618;47.056;15.472;2024-01-10T03:32:25;34.27;;;31.97;;
3211;SDS011;1618;47.056;15.472;2024-01-10T03:34:57;35.73;;;33.43;;
3211;SDS011;1618;47.056;15.472;2024-01-10T03:37:25;34.57;;;32.10;;
3211;SDS011;1618;47.056;15.472;2024-01-10T03:39:52;32.10;;;29.70;;
3211;SDS011;1618;47.056;15.472;2024-01-10T03:42:20;34.10;;;31.70;;
3211;SDS011;1618;47.056;15.472;2024-01-10T03:44:48;33.57;;;31.17;;
3211;SDS011;1618;47.056;15.472;2024-01-10T03:47:15;34.90;;;32.50;;
3211;SDS011;1618;47.056;15.472;2024-01-10T03:49:43;35.20;;;32.80;;
3211;SDS011;1618;47.056;15.472;2024-01-10T03:52:14;34.20;;;31.87;;
3211;SDS011;1618;47.056;15.472;2024-01-10T03:54:43;34.23;;;31.93;;
3211;SDS011;1618;47.056;15.472;2024-01-10T03:57:15;34.70;;;32.40;;
3211;SDS011;1618;47.056;15.472;2024-01-10T03:59:43;34.47;;;32.17;;
3211;SDS011;1618;47.056;15.472;2024-01-10T04:02:10;35.53;;;33.17;;
3211;SDS011;1618;47.056;15.472;2024-01-10T04:04:38;36.07;;;33.67;;
3211;SDS011;1618;47.056;15.472;2024-01-10T04:07:06;36.50;;;34.20;;
3211;SDS011;1618;47.056;15.472;2024-01-10T04:09:35;37.40;;;35.00;;
3211;SDS011;1618;47.056;15.472;2024-01-10T04:12:02;37.57;;;35.20;;
3211;SDS011;1618;47.056;15.472;2024-01-10T04:14:30;36.73;;;34.43;;
3211;SDS011;1618;47.056;15.472;2024-01-10T04:16:57;36.50;;;34.30;;
3211;SDS011;1618;47.056;15.472;2024-01-10T04:19:28;37.47;;;35.07;;
3211;SDS011;1618;47.056;15.472;2024-01-10T04:21:56;38.70;;;36.40;;
3211;SDS011;1618;47.056;15.472;2024-01-10T04:24:23;37.47;;;35.27;;
3211;SDS011;1618;47.056;15.472;2024-01-10T04:26:55;38.80;;;36.60;;
3211;SDS011;1618;47.056;15.472;2024-01-10T04:29:22;38.63;;;36.43;;
3211;SDS011;1618;47.056;15.472;2024-01-10T04:31:52;38.40;;;36.20;;
3211;SDS011;1618;47.056;15.472;2024-01-10T04:34:20;38.60;;;36.30;;
3211;SDS011;1618;47.056;15.472;2024-01-10T04:36:48;38.17;;;35.97;;
3211;SDS011;1618;47.056;15.472;2024-01-10T04:39:16;38.30;;;36.10;;
3211;SDS011;1618;47.056;15.472;2024-01-10T04:41:48;51.30;;;48.47;;
3211;SDS011;1618;47.056;15.472;2024-01-10T04:44:18;38.37;;;36.17;;
3211;SDS011;1618;47.056;15.472;2024-01-10T04:46:45;38.37;;;36.17;;
3211;SDS011;1618;47.056;15.472;2024-01-10T04:49:13;38.70;;;36.50;;
3211;SDS011;1618;47.056;15.472;2024-01-10T04:51:41;38.30;;;36.10;;
3211;SDS011;1618;47.056;15.472;2024-01-10T04:54:10;39.93;;;37.80;;
3211;SDS011;1618;47.056;15.472;2024-01-10T04:56:39;40.20;;;38.00;;
3211;SDS011;1618;47.056;15.472;2024-01-10T04:59:07;39.03;;;36.93;;
3211;SDS011;1618;47.056;15.472;2024-01-10T05:01:36;38.80;;;36.70;;
3211;SDS011;1618;47.056;15.472;2024-01-10T05:04:05;38.47;;;36.27;;
3211;SDS011;1618;47.056;15.472;2024-01-10T05:06:32;40.03;;;37.72;;
3211;SDS011;1618;47.056;15.472;2024-01-10T05:09:03;41.10;;;38.80;;
3211;SDS011;1618;47.056;15.472;2024-01-10T05:11:32;40.60;;;38.30;;
3211;SDS011;1618;47.056;15.472;2024-01-10T05:14:00;40.77;;;38.47;;
3211;SDS011;1618;47.056;15.472;2024-01-10T05:16:29;41.50;;;39.20;;
3211;SDS011;1618;47.056;15.472;2024-01-10T05:19:00;41.60;;;39.30;;
3211;SDS011;1618;47.056;15.472;2024-01-10T05:21:31;40.47;;;38.17;;
3211;SDS011;1618;47.056;15.472;2024-01-10T05:24:00;39.80;;;37.60;;
3211;SDS011;1618;47.056;15.472;2024-01-10T05:26:29;39.53;;;37.33;;
3211;SDS011;1618;47.056;15.472;2024-01-10T05:28:58;39.60;;;37.40;;
3211;SDS011;1618;47.056;15.472;2024-01-10T05:31:26;38.40;;;36.30;;
3211;SDS011;1618;47.056;15.472;2024-01-10T05:33:57;36.37;;;34.37;;
3211;SDS011;1618;47.056;15.472;2024-01-10T05:36:26;37.43;;;35.40;;
3211;SDS011;1618;47.056;15.472;2024-01-10T05:38:54;37.90;;;35.80;;
3211;SDS011;1618;47.056;15.472;2024-01-10T05:41:22;37.93;;;35.93;;
3211;SDS011;1618;47.056;15.472;2024-01-10T05:43:52;37.77;;;35.70;;
3211;SDS011;1618;47.056;15.472;2024-01-10T05:46:20;39.30;;;37.20;;
3211;SDS011;1618;47.056;15.472;2024-01-10T05:48:49;38.60;;;36.50;;
3211;SDS011;1618;47.056;15.472;2024-01-10T05:51:19;39.63;;;37.43;;
3211;SDS011;1618;47.056;15.472;2024-01-10T05:53:49;40.10;;;37.90;;
3211;SDS011;1618;47.056;15.472;2024-01-10T05:56:16;40.73;;;38.53;;
3211;SDS011;1618;47.056;15.472;2024-01-10T05:58:46;39.73;;;37.53;;
3211;SDS011;1618;47.056;15.472;2024-01-10T06:01:16;41.10;;;38.90;;
3211;SDS011;1618;47.056;15.472;2024-01-10T06:03:45;40.00;;;37.90;;
3211;SDS011;1618;47.056;15.472;2024-01-10T06:06:13;40.60;;;38.47;;
3211;SDS011;1618;47.056;15.472;2024-01-10T06:08:42;40.20;;;38.10;;
3211;SDS011;1618;47.056;15.472;2024-01-10T06:11:11;41.60;;;39.40;;
3211;SDS011;1618;47.056;15.472;2024-01-10T06:13:40;40.40;;;38.30;;
3211;SDS011;1618;47.056;15.472;2024-01-10T06:16:07;41.70;;;39.70;;
3211;SDS011;1618;47.056;15.472;2024-01-10T06:18:35;40.30;;;38.30;;
3211;SDS011;1618;47.056;15.472;2024-01-10T06:21:04;40.23;;;38.23;;
3211;SDS011;1618;47.056;15.472;2024-01-10T06:23:32;44.07;;;41.90;;
3211;SDS011;1618;47.056;15.472;2024-01-10T06:26:01;45.93;;;43.63;;
3211;SDS011;1618;47.056;15.472;2024-01-10T06:28:32;45.87;;;43.57;;
3211;SDS011;1618;47.056;15.472;2024-01-10T06:30:59;46.33;;;44.03;;
3211;SDS011;1618;47.056;15.472;2024-01-10T06:33:27;45.37;;;43.17;;
3211;SDS011;1618;47.056;15.472;2024-01-10T06:35:55;45.30;;;43.10;;
3211;SDS011;1618;47.056;15.472;2024-01-10T06:38:23;44.47;;;42.27;;
3211;SDS011;1618;47.056;15.472;2024-01-10T06:40:52;44.70;;;42.50;;
3211;SDS011;1618;47.056;15.472;2024-01-10T06:43:19;47.07;;;44.77;;
3211;SDS011;1618;47.056;15.472;2024-01-10T06:45:49;45.87;;;43.57;;
3211;SDS011;1618;47.056;15.472;2024-01-10T06:48:16;46.17;;;43.80;;
3211;SDS011;1618;47.056;15.472;2024-01-10T06:50:44;45.50;;;43.20;;
3211;SDS011;1618;47.056;15.472;2024-01-10T06:53:14;44.00;;;41.80;;
3211;SDS011;1618;47.056;15.472;2024-01-10T06:55:41;43.10;;;41.00;;
3211;SDS011;1618;47.056;15.472;2024-01-10T06:58:09;43.00;;;40.90;;
3211;SDS011;1618;47.056;15.472;2024-01-10T07:00:37;43.73;;;41.53;;
3211;SDS011;1618;47.056;15.472;2024-01-10T07:03:05;42.50;;;40.40;;
3211;SDS011;1618;47.056;15.472;2024-01-10T07:05:33;44.30;;;42.10;;
3211;SDS011;1618;47.056;15.472;2024-01-10T07:08:01;40.13;;;38.13;;
3211;SDS011;1618;47.056;15.472;2024-01-10T07:10:29;40.40;;;38.40;;
3211;SDS011;1618;47.056;15.472;2024-01-10T07:12:56;38.87;;;36.87;;
3211;SDS011;1618;47.056;15.472;2024-01-10T07:15:24;38.20;;;36.30;;
3211;SDS011;1618;47.056;15.472;2024-01-10T07:17:52;39.50;;;37.50;;
3211;SDS011;1618;47.056;15.472;2024-01-10T07:20:21;39.90;;;37.90;;
3211;SDS011;1618;47.056;15.472;2024-01-10T07:22:49;39.90;;;37.80;;
3211;SDS011;1618;47.056;15.472;2024-01-10T07:25:16;40.30;;;38.20;;
3211;SDS011;1618;47.056;15.472;2024-01-10T07:27:44;39.40;;;37.40;;
3211;SDS011;1618;47.056;15.472;2024-01-10T07:30:11;40.70;;;38.60;;
3211;SDS011;1618;47.056;15.472;2024-01-10T07:32:39;40.17;;;38.10;;
3211;SDS011;1618;47.056;15.472;2024-01-10T07:35:07;38.30;;;36.30;;
3211;SDS011;1618;47.056;15.472;2024-01-10T07:37:36;39.30;;;37.20;;
3211;SDS011;1618;47.056;15.472;2024-01-10T07:40:05;39.53;;;37.53;;
3211;SDS011;1618;47.056;15.472;2024-01-10T07:42:32;40.90;;;38.80;;
3211;SDS011;1618;47.056;15.472;2024-01-10T07:45:00;43.00;;;40.80;;
3211;SDS011;1618;47.056;15.472;2024-01-10T07:47:29;43.43;;;41.13;;
3211;SDS011;1618;47.056;15.472;2024-01-10T07:49:57;41.00;;;38.90;;
3211;SDS011;1618;47.056;15.472;2024-01-10T07:52:24;41.97;;;39.77;;
3211;SDS011;1618;47.056;15.472;2024-01-10T07:54:58;43.17;;;40.87;;
3211;SDS011;1618;47.056;15.472;2024-01-10T07:57:27;43.00;;;40.70;;
3211;SDS011;1618;47.056;15.472;2024-01-10T07:59:54;43.47;;;41.17;;
3211;SDS011;1618;47.056;15.472;2024-01-10T08:02:23;41.17;;;38.97;;
3211;SDS011;1618;47.056;15.472;2024-01-10T08:04:51;43.00;;;40.70;;
3211;SDS011;1618;47.056;15.472;2024-01-10T08:07:19;41.90;;;39.70;;
3211;SDS011;1618;47.056;15.472;2024-01-10T08:09:46;42.23;;;40.03;;
3211;SDS011;1618;47.056;15.472;2024-01-10T08:12:16;41.00;;;38.90;;
3211;SDS011;1618;47.056;15.472;2024-01-10T08:14:44;41.47;;;39.37;;
3211;SDS011;1618;47.056;15.472;2024-01-10T08:17:16;41.30;;;39.13;;
3211;SDS011;1618;47.056;15.472;2024-01-10T08:19:45;40.80;;;38.60;;
3211;SDS011;1618;47.056;15.472;2024-01-10T08:22:13;40.60;;;38.40;;
3211;SDS011;1618;47.056;15.472;2024-01-10T08:24:40;41.07;;;38.87;;
3211;SDS011;1618;47.056;15.472;2024-01-10T08:27:10;40.77;;;38.57;;
3211;SDS011;1618;47.056;15.472;2024-01-10T08:29:38;41.40;;;39.20;;
3211;SDS011;1618;47.056;15.472;2024-01-10T08:32:08;41.40;;;39.13;;
3211;SDS011;1618;47.056;15.472;2024-01-10T08:34:36;41.33;;;39.03;;
3211;SDS011;1618;47.056;15.472;2024-01-10T08:37:03;41.10;;;38.80;;
3211;SDS011;1618;47.056;15.472;2024-01-10T08:39:34;40.80;;;38.50;;
3211;SDS011;1618;47.056;15.472;2024-01-10T08:42:04;42.63;;;40.23;;
3211;SDS011;1618;47.056;15.472;2024-01-10T08:44:34;41.87;;;39.57;;
3211;SDS011;1618;47.056;15.472;2024-01-10T08:47:03;42.90;;;40.50;;
3211;SDS011;1618;47.056;15.472;2024-01-10T08:49:30;43.03;;;40.63;;
3211;SDS011;1618;47.056;15.472;2024-01-10T08:51:58;42.77;;;40.37;;
3211;SDS011;1618;47.056;15.472;2024-01-10T08:54:25;42.50;;;40.10;;
3211;SDS011;1618;47.056;15.472;2024-01-10T08:56:52;43.90;;;41.40;;
3211;SDS011;1618;47.056;15.472;2024-01-10T08:59:20;42.73;;;40.33;;
3211;SDS011;1618;47.056;15.472;2024-01-10T09:01:48;42.23;;;39.83;;
3211;SDS011;1618;47.056;15.472;2024-01-10T09:04:16;41.87;;;39.47;;
3211;SDS011;1618;47.056;15.472;2024-01-10T09:06:46;42.10;;;39.70;;
3211;SDS011;1618;47.056;15.472;2024-01-10T09:09:13;41.73;;;39.33;;
3211;SDS011;1618;47.056;15.472;2024-01-10T09:11:44;42.17;;;39.77;;
3211;SDS011;1618;47.056;15.472;2024-01-10T09:14:13;42.77;;;40.27;;
3211;SDS011;1618;47.056;15.472;2024-01-10T09:16:41;42.40;;;39.90;;
3211;SDS011;1618;47.056;15.472;2024-01-10T09:19:08;40.20;;;37.70;;
3211;SDS011;1618;47.056;15.472;2024-01-10T09:21:37;43.33;;;40.73;;
3211;SDS011;1618;47.056;15.472;2024-01-10T09:24:05;41.37;;;38.87;;
3211;SDS011;1618;47.056;15.472;2024-01-10T09:26:36;39.93;;;37.43;;
3211;SDS011;1618;47.056;15.472;2024-01-10T09:29:06;41.10;;;38.50;;
3211;SDS011;1618;47.056;15.472;2024-01-10T09:31:33;41.00;;;38.43;;
3211;SDS011;1618;47.056;15.472;2024-01-10T09:34:01;40.40;;;37.80;;
3211;SDS011;1618;47.056;15.472;2024-01-10T09:36:29;41.67;;;39.07;;
3211;SDS011;1618;47.056;15.472;2024-01-10T09:38:57;40.70;;;38.10;;
3211;SDS011;1618;47.056;15.472;2024-01-10T09:41:24;40.83;;;38.23;;
3211;SDS011;1618;47.056;15.472;2024-01-10T09:43:54;41.23;;;38.43;;
3211;SDS011;1618;47.056;15.472;2024-01-10T09:46:23;40.47;;;37.67;;
3211;SDS011;1618;47.056;15.472;2024-01-10T09:48:52;41.60;;;38.70;;
3211;SDS011;1618;47.056;15.472;2024-01-10T09:51:19;41.30;;;38.30;;
3211;SDS011;1618;47.056;15.472;2024-01-10T09:53:47;41.17;;;38.17;;
3211;SDS011;1618;47.056;15.472;2024-01-10T09:56:19;39.67;;;36.77;;
3211;SDS011;1618;47.056;15.472;2024-01-10T09:58:47;40.30;;;37.30;;
3211;SDS011;1618;47.056;15.472;2024-01-10T10:01:16;41.03;;;37.93;;
3211;SDS011;1618;47.056;15.472;2024-01-10T10:03:43;40.73;;;37.63;;
3211;SDS011;1618;47.056;15.472;2024-01-10T10:06:12;40.20;;;37.10;;
3211;SDS011;1618;47.056;15.472;2024-01-10T10:08:40;41.40;;;38.60;;
3211;SDS011;1618;47.056;15.472;2024-01-10T10:11:11;41.13;;;38.13;;
3211;SDS011;1618;47.056;15.472;2024-01-10T10:13:41;41.90;;;38.80;;
3211;SDS011;1618;47.056;15.472;2024-01-10T10:16:08;41.40;;;38.40;;
3211;SDS011;1618;47.056;15.472;2024-01-10T10:18:37;41.30;;;38.20;;
3211;SDS011;1618;47.056;15.472;2024-01-10T10:21:08;41.73;;;38.63;;
3211;SDS011;1618;47.056;15.472;2024-01-10T10:23:36;71.67;;;66.80;;
3211;SDS011;1618;47.056;15.472;2024-01-10T10:26:11;41.47;;;38.37;;
3211;SDS011;1618;47.056;15.472;2024-01-10T10:28:47;41.30;;;38.20;;
3211;SDS011;1618;47.056;15.472;2024-01-10T10:31:16;41.90;;;38.90;;
3211;SDS011;1618;47.056;15.472;2024-01-10T10:33:45;41.90;;;38.90;;
3211;SDS011;1618;47.056;15.472;2024-01-10T10:36:14;41.40;;;38.40;;
3211;SDS011;1618;47.056;15.472;2024-01-10T10:38:43;41.00;;;38.00;;
3211;SDS011;1618;47.056;15.472;2024-01-10T10:41:18;40.30;;;37.30;;
3211;SDS011;1618;47.056;15.472;2024-01-10T10:43:51;40.20;;;37.10;;
3211;SDS011;1618;47.056;15.472;2024-01-10T10:46:19;41.93;;;38.83;;
3211;SDS011;1618;47.056;15.472;2024-01-10T10:48:47;40.33;;;37.33;;
3211;SDS011;1618;47.056;15.472;2024-01-10T10:51:19;42.20;;;39.10;;
3211;SDS011;1618;47.056;15.472;2024-01-10T10:53:57;41.73;;;38.73;;
3211;SDS011;1618;47.056;15.472;2024-01-10T10:56:25;40.80;;;37.80;;
3211;SDS011;1618;47.056;15.472;2024-01-10T10:58:58;40.83;;;37.77;;
3211;SDS011;1618;47.056;15.472;2024-01-10T11:01:28;40.57;;;37.57;;
3211;SDS011;1618;47.056;15.472;2024-01-10T11:03:56;38.40;;;35.50;;
3211;SDS011;1618;47.056;15.472;2024-01-10T11:06:24;39.63;;;36.63;;
3211;SDS011;1618;47.056;15.472;2024-01-10T11:08:52;39.90;;;36.90;;
3211;SDS011;1618;47.056;15.472;2024-01-10T11:11:23;38.27;;;35.37;;
3211;SDS011;1618;47.056;15.472;2024-01-10T11:13:59;37.97;;;34.97;;
3211;SDS011;1618;47.056;15.472;2024-01-10T11:21:50;37.50;;;34.40;;
3211;SDS011;1618;47.056;15.472;2024-01-10T11:24:20;38.03;;;34.93;;
3211;SDS011;1618;47.056;15.472;2024-01-10T11:26:48;37.53;;;34.43;;
3211;SDS011;1618;47.056;15.472;2024-01-10T11:29:17;36.83;;;33.73;;
3211;SDS011;1618;47.056;15.472;2024-01-10T11:31:50;38.70;;;35.50;;
3211;SDS011;1618;47.056;15.472;2024-01-10T11:34:22;39.87;;;36.87;;
3211;SDS011;1618;47.056;15.472;2024-01-10T11:39:35;40.00;;;37.00;;
3211;SDS011;1618;47.056;15.472;2024-01-10T11:42:06;39.50;;;36.50;;
3211;SDS011;1618;47.056;15.472;2024-01-10T11:47:19;40.20;;;37.10;;
3211;SDS011;1618;47.056;15.472;2024-01-10T11:49:54;40.17;;;37.07;;
3211;SDS011;1618;47.056;15.472;2024-01-10T11:52:26;39.37;;;36.27;;
3211;SDS011;1618;47.056;15.472;2024-01-10T11:54:59;46.07;;;42.50;;
3211;SDS011;1618;47.056;15.472;2024-01-10T11:57:28;38.43;;;35.33;;
3211;SDS011;1618;47.056;15.472;2024-01-10T11:59:57;38.80;;;35.70;;
3211;SDS011;1618;47.056;15.472;2024-01-10T12:02:25;38.87;;;35.77;;
3211;SDS011;1618;47.056;15.472;2024-01-10T12:04:54;39.77;;;36.70;;
3211;SDS011;1618;47.056;15.472;2024-01-10T12:07:21;39.57;;;36.47;;
3211;SDS011;1618;47.056;15.472;2024-01-10T12:09:50;39.63;;;36.73;;
3211;SDS011;1618;47.056;15.472;2024-01-10T12:12:19;41.17;;;38.17;;
3211;SDS011;1618;47.056;15.472;2024-01-10T12:14:47;40.90;;;37.80;;
3211;SDS011;1618;47.056;15.472;2024-01-10T12:17:15;41.40;;;38.20;;
3211;SDS011;1618;47.056;15.472;2024-01-10T12:19:44;40.30;;;37.40;;
3211;SDS011;1618;47.056;15.472;2024-01-10T12:22:12;40.67;;;37.67;;
3211;SDS011;1618;47.056;15.472;2024-01-10T12:24:42;41.47;;;38.37;;
3211;SDS011;1618;47.056;15.472;2024-01-10T12:27:11;40.60;;;37.60;;
3211;SDS011;1618;47.056;15.472;2024-01-10T12:29:42;40.60;;;37.70;;
3211;SDS011;1618;47.056;15.472;2024-01-10T12:32:09;41.50;;;38.30;;
3211;SDS011;1618;47.056;15.472;2024-01-10T12:34:37;41.50;;;38.40;;
3211;SDS011;1618;47.056;15.472;2024-01-10T12:37:09;41.20;;;38.20;;
3211;SDS011;1618;47.056;15.472;2024-01-10T12:39:38;38.20;;;35.00;;
3211;SDS011;1618;47.056;15.472;2024-01-10T12:42:06;37.80;;;34.70;;
3211;SDS011;1618;47.056;15.472;2024-01-10T12:44:35;37.50;;;34.30;;
3211;SDS011;1618;47.056;15.472;2024-01-10T12:47:04;36.87;;;33.77;;
3211;SDS011;1618;47.056;15.472;2024-01-10T12:49:36;37.13;;;33.93;;
3211;SDS011;1618;47.056;15.472;2024-01-10T12:52:04;37.20;;;34.00;;
3211;SDS011;1618;47.056;15.472;2024-01-10T12:54:31;36.83;;;33.73;;
3211;SDS011;1618;47.056;15.472;2024-01-10T12:56:59;36.27;;;33.17;;
3211;SDS011;1618;47.056;15.472;2024-01-10T12:59:27;35.90;;;32.80;;
3211;SDS011;1618;47.056;15.472;2024-01-10T13:01:54;36.20;;;33.10;;
3211;SDS011;1618;47.056;15.472;2024-01-10T13:04:25;37.87;;;34.67;;
3211;SDS011;1618;47.056;15.472;2024-01-10T13:06:54;36.50;;;33.40;;
3211;SDS011;1618;47.056;15.472;2024-01-10T13:09:22;36.80;;;33.70;;
3211;SDS011;1618;47.056;15.472;2024-01-10T13:11:51;37.23;;;34.13;;
3211;SDS011;1618;47.056;15.472;2024-01-10T13:14:20;37.17;;;34.27;;
3211;SDS011;1618;47.056;15.472;2024-01-10T13:16:48;37.07;;;34.17;;
3211;SDS011;1618;47.056;15.472;2024-01-10T13:19:17;38.73;;;35.73;;
3211;SDS011;1618;47.056;15.472;2024-01-10T13:21:47;39.07;;;36.07;;
3211;SDS011;1618;47.056;15.472;2024-01-10T13:24:15;39.03;;;36.13;;
3211;SDS011;1618;47.056;15.472;2024-01-10T13:26:43;38.13;;;35.23;;
3211;SDS011;1618;47.056;15.472;2024-01-10T13:29:11;37.77;;;34.87;;
3211;SDS011;1618;47.056;15.472;2024-01-10T13:31:40;38.77;;;35.87;;
3211;SDS011;1618;47.056;15.472;2024-01-10T13:34:10;39.37;;;36.37;;
3211;SDS011;1618;47.056;15.472;2024-01-10T13:36:38;38.60;;;35.70;;
3211;SDS011;1618;47.056;15.472;2024-01-10T13:39:08;38.80;;;35.90;;
3211;SDS011;1618;47.056;15.472;2024-01-10T13:41:42;38.57;;;35.67;;
3211;SDS011;1618;47.056;15.472;2024-01-10T13:44:10;38.40;;;35.50;;
3211;SDS011;1618;47.056;15.472;2024-01-10T13:46:37;37.80;;;34.90;;
3211;SDS011;1618;47.056;15.472;2024-01-10T13:49:06;38.20;;;35.30;;
3211;SDS011;1618;47.056;15.472;2024-01-10T13:51:34;38.70;;;35.70;;
3211;SDS011;1618;47.056;15.472;2024-01-10T13:54:02;38.30;;;35.40;;
3211;SDS011;1618;47.056;15.472;2024-01-10T13:56:32;38.97;;;36.07;;
3211;SDS011;1618;47.056;15.472;2024-01-10T13:59:01;38.90;;;36.00;;
3211;SDS011;1618;47.056;15.472;2024-01-10T14:01:30;38.80;;;35.90;;
3211;SDS011;1618;47.056;15.472;2024-01-10T14:03:58;38.67;;;35.77;;
3211;SDS011;1618;47.056;15.472;2024-01-10T14:06:27;38.80;;;35.90;;
3211;SDS011;1618;47.056;15.472;2024-01-10T14:08:56;38.47;;;35.57;;
3211;SDS011;1618;47.056;15.472;2024-01-10T14:11:25;37.07;;;34.27;;
3211;SDS011;1618;47.056;15.472;2024-01-10T14:13:54;37.20;;;34.40;;
3211;SDS011;1618;47.056;15.472;2024-01-10T14:16:22;38.23;;;35.33;;
3211;SDS011;1618;47.056;15.472;2024-01-10T14:18:50;37.40;;;34.60;;
3211;SDS011;1618;47.056;15.472;2024-01-10T14:21:25;37.03;;;34.23;;
3211;SDS011;1618;47.056;15.472;2024-01-10T14:23:53;36.23;;;33.43;;
3211;SDS011;1618;47.056;15.472;2024-01-10T14:26:21;36.70;;;33.90;;
3211;SDS011;1618;47.056;15.472;2024-01-10T14:28:49;37.03;;;34.23;;
3211;SDS011;1618;47.056;15.472;2024-01-10T14:31:19;37.77;;;34.97;;
3211;SDS011;1618;47.056;15.472;2024-01-10T14:33:46;37.83;;;35.03;;
3211;SDS011;1618;47.056;15.472;2024-01-10T14:36:16;37.43;;;34.63;;
3211;SDS011;1618;47.056;15.472;2024-01-10T14:38:47;36.03;;;33.33;;
3211;SDS011;1618;47.056;15.472;2024-01-10T14:41:18;35.80;;;33.10;;
3211;SDS011;1618;47.056;15.472;2024-01-10T14:43:48;35.70;;;33.10;;
3211;SDS011;1618;47.056;15.472;2024-01-10T14:46:16;35.20;;;32.63;;
3211;SDS011;1618;47.056;15.472;2024-01-10T14:48:45;35.90;;;33.20;;
3211;SDS011;1618;47.056;15.472;2024-01-10T14:51:15;36.10;;;33.40;;
3211;SDS011;1618;47.056;15.472;2024-01-10T14:53:43;36.70;;;34.00;;